Time;durP1;ratioP1;P1;durP2;ratioP2;P2;SDS_P1;SDS_P2;PMS_P1;PMS_P2;Temp;Humidity;BMP_temperature;BMP_pressure;BME280_temperature;BME280_humidity;BME280_pressure;Samples;Min_cycle;Max_cycle;Signal;HPM_P1;HPM_P2
2022/05/15 00:02:27;;;;;;;3.10;2.38;;;;;;;16.99;64.21;101166.06;5015024;28;102326;-85
2022/05/15 00:04:55;;;;;;;2.60;2.30;;;;;;;16.99;64.02;101166.06;5016544;28;102539;-85
2022/05/15 00:07:21;;;;;;;3.28;2.42;;;;;;;16.99;64.13;101174.31;5008403;28;103940;-85
2022/05/15 00:09:48;;;;;;;2.25;2.10;;;;;;;16.98;63.70;101167.16;5002252;28;102161;-86
2022/05/15 00:12:16;;;;;;;2.30;2.10;;;;;;;16.98;63.73;101172.66;4995101;28;102411;-86
2022/05/15 00:14:44;;;;;;;3.67;2.33;;;;;;;16.98;63.71;101167.97;5009506;28;102100;-86
2022/05/15 00:17:10;;;;;;;2.60;2.40;;;;;;;16.98;63.68;101169.91;5007658;28;104067;-86
2022/05/15 00:19:38;;;;;;;2.05;1.92;;;;;;;16.97;63.58;101163.59;5000368;28;102061;-86
2022/05/15 00:22:07;;;;;;;3.42;2.65;;;;;;;16.97;63.51;101169.09;5001066;28;102131;-86
2022/05/15 00:24:33;;;;;;;2.63;2.43;;;;;;;16.98;63.86;101154.22;5016451;28;102587;-86
2022/05/15 00:26:59;;;;;;;2.78;2.58;;;;;;;16.97;64.12;101152.59;5012332;28;103865;-86
2022/05/15 00:29:26;;;;;;;5.65;2.30;;;;;;;16.97;64.09;101147.09;5005477;28;101863;-86
2022/05/15 00:31:53;;;;;;;2.70;2.50;;;;;;;16.96;64.08;101148.22;4995215;28;101951;-86
2022/05/15 00:34:19;;;;;;;2.60;2.40;;;;;;;16.96;64.09;101148.22;4996463;28;102138;-86
2022/05/15 00:36:47;;;;;;;3.38;2.22;;;;;;;16.96;63.97;101145.47;4994574;28;103896;-85
2022/05/15 00:39:14;;;;;;;2.80;2.15;;;;;;;16.95;63.65;101149.34;5010128;28;102121;-85
2022/05/15 00:41:41;;;;;;;4.50;2.50;;;;;;;16.96;64.11;101150.16;4995375;28;102404;-85
2022/05/15 00:44:09;;;;;;;2.33;2.13;;;;;;;16.96;63.88;101156.47;4996369;28;102038;-85
2022/05/15 00:46:38;;;;;;;4.18;2.38;;;;;;;16.95;63.64;101148.53;5014830;28;103889;-85
2022/05/15 00:49:07;;;;;;;2.63;2.40;;;;;;;16.95;63.93;101149.34;5016342;28;102090;-86
2022/05/15 00:51:40;;;;;;;2.13;1.95;;;;;;;16.95;64.28;101154.84;5014741;28;102014;-85
2022/05/15 00:54:12;;;;;;;2.60;2.22;;;;;;;16.95;64.07;101165.84;5017145;28;102059;-85
2022/05/15 00:56:45;;;;;;;2.33;2.13;;;;;;;16.94;63.92;101161.44;4998807;28;103916;-85
2022/05/15 00:59:17;;;;;;;2.47;2.20;;;;;;;16.95;63.67;101162.25;5005417;28;102312;-85
2022/05/15 01:01:44;;;;;;;2.50;2.30;;;;;;;16.94;63.75;101169.69;5014988;28;102066;-86
2022/05/15 01:04:12;;;;;;;2.72;2.53;;;;;;;16.95;63.77;101165.84;5016802;28;102378;-86
2022/05/15 01:06:43;;;;;;;2.92;2.50;;;;;;;16.95;63.95;101173.25;5013451;28;103766;-85
2022/05/15 01:09:13;;;;;;;2.45;2.25;;;;;;;16.94;63.76;101172.44;5015264;28;102516;-86
2022/05/15 01:11:41;;;;;;;3.08;2.63;;;;;;;16.94;64.09;101172.44;5014318;28;102069;-86
2022/05/15 01:14:11;;;;;;;2.40;2.17;;;;;;;16.94;63.91;101164.19;5012447;28;102160;-86
2022/05/15 01:16:38;;;;;;;2.45;2.08;;;;;;;16.94;63.93;101163.38;4994390;28;103988;-86
2022/05/15 01:19:05;;;;;;;2.50;2.30;;;;;;;16.93;63.27;101173.56;4998466;28;102358;-86
2022/05/15 01:21:35;;;;;;;2.42;2.22;;;;;;;16.93;63.80;101170.81;5010648;28;102997;-86
2022/05/15 01:24:04;;;;;;;2.28;2.10;;;;;;;16.93;63.58;101168.09;5006786;28;102188;-85
2022/05/15 01:26:33;;;;;;;2.25;2.13;;;;;;;16.93;63.55;101165.34;4994235;28;104041;-86
2022/05/15 01:29:01;;;;;;;2.20;2.00;;;;;;;16.92;63.73;101160.97;4995804;28;101963;-86
2022/05/15 01:31:28;;;;;;;2.40;2.20;;;;;;;16.93;63.60;101168.09;5006845;28;102116;-86
2022/05/15 01:33:55;;;;;;;2.40;2.20;;;;;;;16.94;63.67;101169.69;5015558;28;102335;-87
2022/05/15 01:36:23;;;;;;;2.00;1.90;;;;;;;16.93;63.65;101162.59;5013225;28;104065;-86
2022/05/15 01:38:52;;;;;;;2.20;2.00;;;;;;;16.92;63.78;101160.97;5015607;28;102003;-87
2022/05/15 01:41:19;;;;;;;2.50;2.30;;;;;;;16.93;63.73;101161.78;5014873;28;101922;-87
2022/05/15 01:43:52;;;;;;;1.77;1.67;;;;;;;16.92;63.70;101158.22;5016235;28;102175;-87
2022/05/15 01:46:21;;;;;;;2.38;2.03;;;;;;;16.92;63.68;101149.97;5015564;28;103801;-87
2022/05/15 01:48:48;;;;;;;2.47;2.28;;;;;;;16.93;63.83;101150.78;5014627;28;101975;-86
2022/05/15 01:51:15;;;;;;;2.13;1.98;;;;;;;16.92;63.78;101149.16;4996514;28;102010;-86
2022/05/15 01:53:42;;;;;;;2.22;2.10;;;;;;;16.92;63.46;101154.66;4996317;28;102343;-85
2022/05/15 01:56:11;;;;;;;3.13;1.88;;;;;;;16.92;63.50;101146.41;4995201;28;103937;-85
2022/05/15 01:58:37;;;;;;;2.22;2.03;;;;;;;16.91;63.61;101156.56;4995981;28;101973;-85
2022/05/15 02:01:04;;;;;;;2.50;1.85;;;;;;;16.92;63.69;101154.66;4994781;28;102221;-86
2022/05/15 02:03:31;;;;;;;2.60;2.40;;;;;;;16.91;63.90;101162.06;4994934;28;102281;-85
2022/05/15 02:05:58;;;;;;;2.83;2.17;;;;;;;16.91;63.46;101153.00;4997801;28;103899;-85
2022/05/15 02:08:30;;;;;;;2.85;2.10;;;;;;;16.91;63.54;101153.81;5014814;28;102014;-84
2022/05/15 02:10:57;;;;;;;2.33;2.17;;;;;;;16.91;63.61;101159.31;5002803;28;101972;-85
2022/05/15 02:13:24;;;;;;;2.85;2.13;;;;;;;16.91;63.48;101153.81;5001113;28;102145;-84
2022/05/15 02:15:52;;;;;;;2.45;2.10;;;;;;;16.91;63.51;101153.00;5001890;28;103963;-85
2022/05/15 02:18:20;;;;;;;2.00;1.90;;;;;;;16.91;63.68;101164.81;5006279;28;101915;-86
2022/05/15 02:20:47;;;;;;;2.65;2.00;;;;;;;16.91;63.60;101164.00;5008340;28;103044;-86
2022/05/15 02:23:13;;;;;;;3.17;2.25;;;;;;;16.91;63.57;101153.00;5011400;28;102266;-86
2022/05/15 02:25:40;;;;;;;2.40;2.13;;;;;;;16.91;63.66;101167.56;4995652;28;104023;-86
2022/05/15 02:28:07;;;;;;;2.00;1.90;;;;;;;16.91;63.34;101166.75;5005719;28;102184;-86
2022/05/15 02:30:36;;;;;;;2.97;2.00;;;;;;;16.91;63.79;101167.56;5005087;28;102034;-86
2022/05/15 02:33:03;;;;;;;2.20;1.97;;;;;;;16.90;63.54;101167.88;5016689;28;102226;-86
2022/05/15 02:35:29;;;;;;;2.92;1.95;;;;;;;16.90;63.35;101174.19;5015364;28;103895;-87
2022/05/15 02:37:56;;;;;;;2.20;2.00;;;;;;;16.90;63.37;101173.38;5016352;28;101943;-86
2022/05/15 02:40:24;;;;;;;2.10;2.00;;;;;;;16.90;63.58;101174.19;5015764;28;101831;-85
2022/05/15 02:42:53;;;;;;;3.08;2.25;;;;;;;16.89;63.39;101175.31;5017283;28;102046;-86
2022/05/15 02:45:20;;;;;;;2.17;1.73;;;;;;;16.89;63.33;101180.81;5016327;28;103939;-85
2022/05/15 02:47:48;;;;;;;2.30;2.10;;;;;;;16.90;63.90;101185.16;5017501;28;101983;-85
2022/05/15 02:53:02;;;;;;;1.92;1.80;;;;;;;16.89;63.27;101183.56;5014916;28;102115;-86
2022/05/15 02:55:29;;;;;;;2.72;2.20;;;;;;;16.89;63.19;101183.56;5016110;28;104179;-86
2022/05/15 02:57:57;;;;;;;2.85;1.92;;;;;;;16.89;63.44;101182.75;5009268;28;102211;-86
2022/05/15 03:00:25;;;;;;;2.78;2.15;;;;;;;16.89;63.84;101194.53;5000613;28;102394;-86
2022/05/15 03:02:54;;;;;;;2.60;2.30;;;;;;;16.87;63.75;101177.53;5018197;28;102378;-86
2022/05/15 03:05:22;;;;;;;2.03;1.83;;;;;;;16.89;63.72;101194.53;5000568;28;103967;-86
2022/05/15 03:07:49;;;;;;;2.10;1.90;;;;;;;16.87;63.40;101191.28;5012316;28;101906;-86
2022/05/15 03:10:18;;;;;;;3.58;2.13;;;;;;;16.89;63.85;101188.25;5014681;28;102122;-85
2022/05/15 03:12:57;;;;;;;2.05;1.95;;;;;;;16.89;63.19;101202.78;5015966;28;102361;-85
2022/05/15 03:15:23;;;;;;;2.70;2.10;;;;;;;16.89;63.73;101196.47;5014418;28;104319;-86
2022/05/15 03:17:50;;;;;;;2.40;2.20;;;;;;;16.89;63.12;101204.72;5011942;28;101998;-86
2022/05/15 03:20:19;;;;;;;2.00;1.80;;;;;;;16.87;63.74;101202.25;5013514;28;102216;-85
2022/05/15 03:22:46;;;;;;;2.75;1.73;;;;;;;16.89;63.72;101201.97;5012179;28;102424;-85
2022/05/15 03:25:12;;;;;;;2.00;1.90;;;;;;;16.89;63.65;101208.28;5000738;28;103901;-85
2022/05/15 03:27:39;;;;;;;2.28;2.05;;;;;;;16.90;63.81;101200.84;4991939;28;102475;-85
2022/05/15 03:30:07;;;;;;;1.70;1.60;;;;;;;16.88;63.36;101203.91;4997776;28;102101;-85
2022/05/15 03:32:35;;;;;;;;;;;;;;;16.88;63.33;101209.41;5006841;28;102382;-85
2022/05/15 03:35:05;;;;;;;2.00;1.80;;;;;;;16.90;63.36;101209.91;5016094;28;103781;-85
2022/05/15 03:37:33;;;;;;;2.20;1.88;;;;;;;16.90;63.80;101209.09;4999839;28;102100;-85
2022/05/15 03:40:00;;;;;;;2.10;2.00;;;;;;;16.90;63.67;101204.41;4996360;28;102152;-85
2022/05/15 03:42:26;;;;;;;2.42;1.77;;;;;;;16.90;63.42;101207.16;4997000;28;102287;-85
2022/05/15 03:44:53;;;;;;;2.45;1.90;;;;;;;16.90;63.88;101201.66;4996055;28;104301;-85
2022/05/15 03:47:20;;;;;;;2.42;1.92;;;;;;;16.90;63.90;101209.91;4996379;28;101943;-85
2022/05/15 03:49:50;;;;;;;2.00;1.80;;;;;;;16.91;63.80;101207.97;5011777;28;102072;-85
2022/05/15 03:52:17;;;;;;;2.93;1.90;;;;;;;16.90;63.71;101207.16;5014946;28;102452;-86
2022/05/15 03:54:46;;;;;;;2.63;1.67;;;;;;;16.91;63.81;101216.22;4997453;28;103892;-87
2022/05/15 03:57:13;;;;;;;2.10;2.00;;;;;;;16.92;63.90;101217.88;4995809;28;102003;-87
2022/05/15 03:59:41;;;;;;;1.70;1.60;;;;;;;16.92;63.59;101221.44;4996954;28;101953;-87
2022/05/15 04:02:09;;;;;;;2.15;2.03;;;;;;;16.92;63.43;101224.19;4996176;28;102056;-86
2022/05/15 04:04:37;;;;;;;2.07;1.67;;;;;;;16.92;63.90;101226.94;4995953;28;104077;-86
2022/05/15 04:07:03;;;;;;;1.63;1.52;;;;;;;16.91;63.74;101222.53;4996199;28;102347;-87
2022/05/15 04:09:32;;;;;;;1.88;1.77;;;;;;;16.93;63.75;101223.06;4995176;28;102515;-86
2022/05/15 04:12:00;;;;;;;2.20;2.00;;;;;;;16.93;63.39;101220.31;5002995;28;102159;-87
2022/05/15 04:14:26;;;;;;;1.90;1.80;;;;;;;16.93;63.50;101217.56;4995342;28;103943;-86
2022/05/15 04:16:53;;;;;;;1.77;1.67;;;;;;;16.94;64.04;101224.69;5013819;28;102527;-87
2022/05/15 04:19:20;;;;;;;1.73;1.63;;;;;;;16.94;64.05;101224.69;5007800;28;102367;-87
2022/05/15 04:21:48;;;;;;;1.70;1.60;;;;;;;16.95;63.53;101226.34;5007829;28;102122;-87
2022/05/15 04:24:18;;;;;;;1.83;1.73;;;;;;;16.95;63.83;101226.34;5003588;28;103804;-87
2022/05/15 04:26:49;;;;;;;1.85;1.60;;;;;;;16.96;63.88;101227.97;4996107;28;101893;-87
2022/05/15 04:29:17;;;;;;;2.00;1.90;;;;;;;16.95;63.53;101231.84;5006091;28;102652;-86
2022/05/15 04:31:44;;;;;;;;;;;;;;;16.96;63.81;101227.97;5016007;28;102315;-86
2022/05/15 04:34:11;;;;;;;1.98;1.88;;;;;;;16.97;63.75;101232.34;5014615;28;103690;-86
2022/05/15 04:36:37;;;;;;;2.03;1.83;;;;;;;16.97;63.47;101226.03;5014384;28;101942;-85
2022/05/15 04:39:05;;;;;;;1.85;1.75;;;;;;;16.98;63.74;101239.47;5005160;28;102080;-86
2022/05/15 04:41:32;;;;;;;1.80;1.70;;;;;;;16.98;63.71;101231.22;4995198;28;102774;-86
2022/05/15 04:44:00;;;;;;;1.80;1.60;;;;;;;16.99;63.57;101232.06;5000229;28;104158;-86
2022/05/15 04:46:29;;;;;;;2.70;1.85;;;;;;;16.99;63.71;101243.06;4994650;28;102356;-86
2022/05/15 04:48:56;;;;;;;;;;;;;;;17.00;63.81;101234.50;4993992;28;102374;-87
2022/05/15 04:51:22;;;;;;;2.63;2.00;;;;;;;17.00;63.62;101239.97;4996263;28;102613;-85
2022/05/15 04:53:49;;;;;;;3.35;1.77;;;;;;;17.00;64.22;101248.22;4994394;28;104485;-85
2022/05/15 04:56:15;;;;;;;3.03;1.80;;;;;;;17.02;63.84;101254.25;4995948;28;103829;-86
2022/05/15 04:58:43;;;;;;;1.70;1.60;;;;;;;17.02;63.79;101243.25;4994462;28;102471;-86
2022/05/15 05:01:09;;;;;;;1.95;1.77;;;;;;;17.03;63.58;101255.88;5003680;28;102213;-86
2022/05/15 05:03:37;;;;;;;1.60;1.50;;;;;;;17.03;63.61;101246.81;5012340;28;103673;-85
2022/05/15 05:06:03;;;;;;;2.17;1.98;;;;;;;17.05;63.90;101247.31;5015051;28;102465;-86
2022/05/15 05:08:30;;;;;;;1.95;1.85;;;;;;;17.04;64.10;101241.00;5005826;28;102552;-87
2022/05/15 05:10:56;;;;;;;2.00;1.70;;;;;;;17.05;63.76;101247.31;4995589;28;102329;-87
2022/05/15 05:13:23;;;;;;;2.15;1.80;;;;;;;17.07;63.59;101260.78;4995911;28;104223;-86
2022/05/15 05:15:50;;;;;;;2.10;1.95;;;;;;;17.07;64.03;101249.78;4999362;28;102069;-87
2022/05/15 05:18:18;;;;;;;2.00;1.80;;;;;;;17.09;63.54;101247.53;5009046;28;102004;-86
2022/05/15 05:20:50;;;;;;;1.70;1.60;;;;;;;17.09;63.54;101247.53;4999340;28;103706;-86
2022/05/15 05:23:18;;;;;;;1.90;1.80;;;;;;;17.10;63.92;101246.44;5010471;28;104063;-86
2022/05/15 05:25:45;;;;;;;1.80;1.70;;;;;;;17.11;64.00;101248.06;5007417;28;102616;-87
2022/05/15 05:28:12;;;;;;;2.15;1.90;;;;;;;17.12;63.42;101246.94;5013316;28;102229;-87
2022/05/15 05:30:41;;;;;;;2.10;1.90;;;;;;;17.12;63.50;101255.19;5008747;28;102170;-87
2022/05/15 05:33:08;;;;;;;1.80;1.70;;;;;;;17.14;63.34;101256.53;4993810;28;104959;-86
2022/05/15 05:35:36;;;;;;;2.20;2.00;;;;;;;17.14;63.51;101258.47;4997768;28;103509;-87
2022/05/15 05:38:05;;;;;;;2.05;1.70;;;;;;;17.15;63.99;101254.59;5009573;28;102452;-87
2022/05/15 05:40:32;;;;;;;2.70;2.03;;;;;;;17.16;63.46;101256.22;5007609;28;102786;-87
2022/05/15 05:42:59;;;;;;;1.80;1.70;;;;;;;17.17;63.83;101255.13;5019499;28;103985;-86
2022/05/15 05:45:25;;;;;;;2.65;1.80;;;;;;;17.17;63.35;101261.41;5012266;28;102157;-87
2022/05/15 05:47:52;;;;;;;2.78;2.20;;;;;;;17.19;63.84;101258.34;5001057;28;102077;-85
2022/05/15 05:50:21;;;;;;;2.15;1.95;;;;;;;17.20;63.30;101260.81;4994895;28;102354;-88
2022/05/15 05:52:48;;;;;;;1.77;1.67;;;;;;;17.20;63.26;101265.47;5005638;28;103844;-87
2022/05/15 05:55:18;;;;;;;2.50;2.00;;;;;;;17.21;63.39;101256.13;4996709;28;102630;-87
2022/05/15 05:57:46;;;;;;;3.38;2.42;;;;;;;17.22;63.67;101257.75;4997497;28;102628;-86
2022/05/15 06:00:15;;;;;;;3.25;2.00;;;;;;;17.23;63.49;101260.19;4994581;28;102183;-87
2022/05/15 06:02:42;;;;;;;3.70;1.70;;;;;;;17.24;63.23;101263.78;4992278;28;104000;-88
2022/05/15 06:05:12;;;;;;;2.25;2.00;;;;;;;17.24;63.65;101261.03;4996158;28;102342;-88
2022/05/15 06:07:39;;;;;;;2.25;2.03;;;;;;;17.25;63.73;101268.16;5019410;27;102666;-88
2022/05/15 06:10:09;;;;;;;2.87;2.20;;;;;;;17.26;63.30;101258.78;5014922;28;102669;-88
2022/05/15 06:12:40;;;;;;;2.60;2.17;;;;;;;17.26;63.39;101262.34;5007104;28;104181;-89
2022/05/15 06:15:09;;;;;;;2.95;2.35;;;;;;;17.26;63.36;101262.34;5011199;28;102670;-88
2022/05/15 06:17:35;;;;;;;2.75;2.20;;;;;;;17.28;63.73;101267.56;5004830;28;102691;-89
2022/05/15 06:20:05;;;;;;;3.30;2.15;;;;;;;17.28;63.67;101256.56;5005001;28;102140;-89
2022/05/15 06:22:33;;;;;;;350.90;104.65;;;;;;;17.31;63.57;101261.44;5007467;28;104076;-88
2022/05/15 06:25:00;;;;;;;3.72;2.00;;;;;;;17.30;63.20;101257.03;5003811;28;102454;-88
2022/05/15 06:27:34;;;;;;;2.00;1.80;;;;;;;17.31;63.42;101255.94;5012596;28;102317;-89
2022/05/15 06:30:02;;;;;;;2.97;2.78;;;;;;;17.32;63.47;101251.25;5006722;28;103373;-87
2022/05/15 06:32:30;;;;;;;75.30;70.30;;;;;;;17.33;63.08;101258.38;5007780;28;103958;-87
2022/05/15 06:34:57;;;;;;;6.10;5.55;;;;;;;17.35;63.07;101254.22;5009759;28;102267;-88
2022/05/15 06:37:23;;;;;;;1083.97;335.65;;;;;;;17.35;63.46;101250.66;5005759;28;101972;-87
2022/05/15 06:39:50;;;;;;;65.90;4.07;;;;;;;17.36;63.50;101252.28;5011043;28;102480;-87
2022/05/15 06:42:16;;;;;;;63.75;41.33;;;;;;;17.36;63.22;101253.09;5001284;28;104010;-87
2022/05/15 06:44:43;;;;;;;101.22;96.07;;;;;;;17.37;63.26;101254.72;5001537;28;102492;-87
2022/05/15 06:47:11;;;;;;;218.98;207.50;;;;;;;17.39;63.31;101252.50;5009495;28;102059;-87
2022/05/15 06:49:38;;;;;;;192.05;182.10;;;;;;;17.39;63.38;101258.00;5002258;28;102315;-87
2022/05/15 06:52:05;;;;;;;187.52;177.95;;;;;;;17.41;63.00;101261.25;5013815;28;104052;-87
2022/05/15 06:54:32;;;;;;;170.95;162.23;;;;;;;17.40;63.29;101254.13;5011240;28;102100;-86
2022/05/15 06:59:44;;;;;;;161.27;153.00;;;;;;;17.43;63.42;101241.69;5008479;28;102170;-86
2022/05/15 07:02:12;;;;;;;208.23;197.15;;;;;;;17.43;62.91;101242.50;5005432;28;104472;-87
2022/05/15 07:04:39;;;;;;;268.83;254.73;;;;;;;17.45;63.34;101251.25;5002049;28;102300;-87
2022/05/15 07:07:06;;;;;;;296.30;280.63;;;;;;;17.46;63.27;101246.59;5002366;28;102186;-86
2022/05/15 07:09:33;;;;;;;329.77;311.83;;;;;;;17.46;62.86;101241.09;5004834;28;102443;-87
2022/05/15 07:11:59;;;;;;;347.15;327.98;;;;;;;17.48;63.41;101247.88;5011213;28;103909;-87
2022/05/15 07:14:26;;;;;;;306.13;289.83;;;;;;;17.48;63.42;101244.34;5011676;28;102130;-87
2022/05/15 07:16:53;;;;;;;738.20;688.10;;;;;;;17.49;63.35;101251.47;5003300;28;102158;-87
2022/05/15 07:19:21;;;;;;;742.95;692.80;;;;;;;17.49;63.06;101244.03;5012940;28;102232;-87
2022/05/15 07:21:48;;;;;;;743.13;692.33;;;;;;;17.50;63.09;101247.59;5013888;28;104110;-86
2022/05/15 07:24:14;;;;;;;788.35;732.00;;;;;;;17.49;62.76;101246.78;5002219;28;102472;-87
2022/05/15 07:26:44;;;;;;;807.63;749.78;;;;;;;17.52;63.24;101246.16;5014833;28;101972;-87
2022/05/15 07:29:12;;;;;;;827.72;766.67;;;;;;;17.51;63.32;101240.97;5016840;28;102087;-86
2022/05/15 07:31:38;;;;;;;800.13;743.45;;;;;;;17.52;63.06;101243.41;5012684;28;104059;-87
2022/05/15 07:34:05;;;;;;;885.78;817.60;;;;;;;17.53;63.25;101239.56;5009688;28;102315;-87
2022/05/15 07:36:33;;;;;;;871.03;806.55;;;;;;;17.54;63.14;101241.19;5013355;28;102190;-86
2022/05/15 07:39:00;;;;;;;872.23;805.33;;;;;;;17.56;63.30;101256.56;5004988;28;102604;-86
2022/05/15 07:41:26;;;;;;;912.47;840.55;;;;;;;17.57;63.25;101247.22;5004669;28;103903;-87
2022/05/15 07:43:54;;;;;;;945.30;867.53;;;;;;;17.58;63.02;101248.81;4994333;28;102345;-86
2022/05/15 07:46:21;;;;;;;903.67;832.58;;;;;;;17.58;62.92;101243.31;5010549;28;102208;-87
2022/05/15 07:48:47;;;;;;;924.00;850.35;;;;;;;17.58;63.04;101244.13;5010563;28;102369;-87
2022/05/15 07:51:16;;;;;;;950.72;871.80;;;;;;;17.59;62.79;101244.94;5012387;28;104183;-87
2022/05/15 07:53:44;;;;;;;935.33;859.75;;;;;;;17.59;62.77;101244.94;5008545;28;102406;-86
2022/05/15 07:56:13;;;;;;;970.53;889.47;;;;;;;17.61;62.87;101231.72;5000327;28;102585;-87
2022/05/15 07:58:40;;;;;;;977.45;894.50;;;;;;;17.60;63.17;101235.56;5017453;28;102266;-87
2022/05/15 08:01:08;;;;;;;973.55;891.47;;;;;;;17.60;63.07;101238.31;5007400;28;102805;-87
2022/05/15 08:03:39;;;;;;;988.20;903.50;;;;;;;17.62;62.82;101238.84;5013730;28;102508;-87
2022/05/15 08:08:53;;;;;;;1012.80;923.05;;;;;;;17.62;62.89;101236.09;5014260;28;102723;-87
2022/05/15 08:11:20;;;;;;;952.85;873.38;;;;;;;17.62;62.65;101238.84;5005737;28;103264;-87
2022/05/15 08:13:47;;;;;;;999.08;913.30;;;;;;;17.64;62.55;101231.09;5015215;28;102594;-88
2022/05/15 08:16:14;;;;;;;989.85;903.53;;;;;;;17.63;62.81;101226.69;5010237;28;102428;-87
2022/05/15 08:24:14;;;;;;;984.33;901.08;;;;;;;17.64;63.15;101220.91;4999311;28;103298;-89
2022/05/15 08:26:44;;;;;;;933.60;856.58;;;;;;;17.67;62.60;101225.81;5015297;28;102152;-87
2022/05/15 08:29:11;;;;;;;673.00;625.08;;;;;;;17.69;62.18;101211.72;5012993;28;102882;-88
2022/05/15 08:31:39;;;;;;;787.35;732.78;;;;;;;17.70;61.76;101210.59;5002683;28;103850;-86
2022/05/15 08:34:05;;;;;;;862.63;798.37;;;;;;;17.70;61.85;101207.84;5012114;28;102403;-88
2022/05/15 08:36:36;;;;;;;986.70;901.38;;;;;;;17.70;61.98;101213.34;5011219;28;103050;-87
2022/05/15 08:39:03;;;;;;;942.15;863.33;;;;;;;17.70;62.45;101202.31;5010255;28;102930;-86
2022/05/15 08:41:43;;;;;;;975.60;893.60;;;;;;;17.71;62.19;101215.00;5015082;28;104017;-87
2022/05/15 08:44:12;;;;;;;958.33;878.08;;;;;;;17.72;61.86;101211.09;5012365;28;102317;-87
2022/05/15 08:46:44;;;;;;;;;;;;;;;17.73;61.67;101208.03;5015097;28;102456;-86
2022/05/15 08:49:21;;;;;;;818.10;760.17;;;;;;;17.80;59.91;101209.59;5013599;28;102575;-87
2022/05/15 08:51:57;;;;;;;806.20;748.45;;;;;;;17.84;58.92;101208.66;5002653;28;103382;-87
2022/05/15 08:54:26;;;;;;;803.90;747.05;;;;;;;17.87;58.12;101208.06;5005792;28;102070;-87
2022/05/15 08:56:55;;;;;;;801.47;746.17;;;;;;;17.88;58.00;101198.66;5012299;28;102773;-87
2022/05/15 08:59:25;;;;;;;812.38;755.38;;;;;;;17.89;58.00;101199.50;5007853;28;102188;-86
2022/05/15 09:01:55;;;;;;;790.58;735.47;;;;;;;17.90;57.37;101201.13;5014352;28;103846;-87
2022/05/15 09:04:24;;;;;;;;;;;;;;;18.58;54.40;101205.59;5013924;28;102665;-87
2022/05/15 09:07:09;;;;;;;1999.90;999.90;;;;;;;18.96;54.27;101197.72;5009298;28;102523;-91
2022/05/15 09:09:48;;;;;;;1999.90;999.90;;;;;;;18.84;51.67;101213.25;4996725;28;102449;-90
2022/05/15 09:12:19;;;;;;;1999.90;999.90;;;;;;;18.75;51.81;101207.66;5023855;28;104082;-88
2022/05/15 09:15:01;;;;;;;1999.90;999.90;;;;;;;18.75;50.91;101210.41;5000768;28;102334;-88
2022/05/15 09:17:38;;;;;;;1999.90;999.90;;;;;;;18.68;49.06;101194.31;4993410;28;102604;-88
2022/05/15 09:20:07;;;;;;;1999.90;877.22;;;;;;;18.64;49.20;101198.81;4996570;28;102122;-87
2022/05/15 09:22:39;;;;;;;1999.90;824.88;;;;;;;18.74;48.07;101197.78;4993904;28;103991;-88
2022/05/15 09:25:18;;;;;;;1999.90;999.90;;;;;;;18.76;48.74;101194.72;5004566;28;103127;-88
2022/05/15 09:28:01;;;;;;;1999.90;999.90;;;;;;;18.66;49.21;101193.00;4999468;28;102002;-88
2022/05/15 09:30:34;;;;;;;1999.90;999.90;;;;;;;18.62;49.36;101192.00;4996035;28;102032;-88
2022/05/15 09:33:01;;;;;;;1999.90;999.90;;;;;;;18.77;47.83;101196.34;4993677;28;104074;-88
2022/05/15 09:35:35;;;;;;;1999.90;909.85;;;;;;;18.68;48.71;101187.97;4994537;28;102449;-88
2022/05/15 09:43:39;;;;;;;1999.90;999.90;;;;;;;18.72;48.73;101194.53;4992808;28;103808;-86
2022/05/15 09:46:11;;;;;;;1924.50;917.08;;;;;;;18.61;47.65;101196.69;5009516;28;102784;-86
2022/05/15 09:48:41;;;;;;;1999.90;927.63;;;;;;;18.54;47.80;101187.25;5013175;28;102635;-87
2022/05/15 09:51:12;;;;;;;1999.90;999.90;;;;;;;18.70;46.54;101194.78;5013590;28;102303;-86
2022/05/15 09:53:42;;;;;;;1999.90;999.90;;;;;;;18.66;47.65;101195.75;4998090;28;104243;-86
2022/05/15 09:56:13;;;;;;;1999.90;999.90;;;;;;;18.62;47.56;101192.00;5004060;28;102855;-84
2022/05/15 09:58:45;;;;;;;1999.90;999.90;;;;;;;18.23;50.32;101182.47;5006551;28;102396;-86
2022/05/15 10:01:21;;;;;;;1999.90;999.90;;;;;;;17.96;51.71;101183.38;5000682;28;102406;-85
2022/05/15 10:03:52;;;;;;;1999.90;999.90;;;;;;;17.85;53.10;101191.03;5009920;28;104065;-85
2022/05/15 10:06:22;;;;;;;1999.90;999.90;;;;;;;17.76;54.45;101192.88;5008485;28;102621;-86
2022/05/15 10:09:04;;;;;;;1999.90;999.90;;;;;;;17.70;54.79;101185.81;5008734;28;102335;-86
2022/05/15 10:11:33;;;;;;;1999.90;999.90;;;;;;;17.66;54.96;101187.56;5007750;28;102553;-87
2022/05/15 10:14:02;;;;;;;1999.90;999.90;;;;;;;17.62;55.25;101178.28;4998993;28;103825;-86
2022/05/15 10:16:32;;;;;;;1999.90;999.90;;;;;;;17.60;55.94;101181.34;5007849;28;102658;-85
2022/05/15 10:19:02;;;;;;;1999.90;999.90;;;;;;;17.57;55.70;101181.16;5006376;28;102498;-86
2022/05/15 10:21:37;;;;;;;1999.90;999.90;;;;;;;17.57;56.65;101183.91;5008374;28;102687;-85
2022/05/15 10:24:08;;;;;;;1999.90;999.90;;;;;;;17.52;56.03;101174.59;4999165;28;104033;-86
2022/05/15 10:26:47;;;;;;;1999.90;999.90;;;;;;;17.52;56.88;101180.13;5008851;28;102000;-86
2022/05/15 10:29:19;;;;;;;;;;;;;;;17.51;57.09;101180.44;4998031;28;102311;-86
2022/05/15 10:31:49;;;;;;;1999.90;999.90;;;;;;;17.49;57.24;101172.50;5007146;28;102128;-86
2022/05/15 10:34:21;;;;;;;1999.90;999.90;;;;;;;17.47;57.55;101174.72;5001522;28;104007;-85
2022/05/15 10:37:01;;;;;;;1999.90;999.90;;;;;;;17.45;58.36;101174.22;4992341;28;102538;-85
2022/05/15 10:39:40;;;;;;;1999.90;999.90;;;;;;;17.45;58.07;101167.91;4993190;28;102343;-86
2022/05/15 10:42:19;;;;;;;1999.90;999.90;;;;;;;17.44;58.42;101174.53;5002123;28;102320;-85
2022/05/15 10:44:58;;;;;;;1999.90;999.90;;;;;;;17.41;59.01;101173.19;4999519;28;104130;-86
2022/05/15 10:47:31;;;;;;;1999.90;999.90;;;;;;;17.40;58.64;101160.56;5007965;28;102108;-86
2022/05/15 10:50:19;;;;;;;1999.90;999.90;;;;;;;17.39;59.24;101167.19;4992675;28;102060;-86
2022/05/15 10:57:21;;;;;;;1999.90;999.90;;;;;;;17.39;59.18;101158.13;4995051;28;102048;-86
2022/05/15 10:59:01;;;;;;;1999.90;999.90;;;;;;;17.35;59.97;101160.69;5004933;28;102434;-85
2022/05/15 11:01:36;;;;;;;1999.90;999.90;;;;;;;17.44;58.77;101167.09;4998269;28;101955;-86
2022/05/15 11:04:12;;;;;;;1999.90;999.90;;;;;;;17.47;58.73;101169.22;5010501;28;102318;-86
2022/05/15 11:07:00;;;;;;;1999.90;999.90;;;;;;;17.46;59.33;101159.34;5010822;28;103861;-86
2022/05/15 11:09:35;;;;;;;1999.90;999.90;;;;;;;17.59;58.29;101165.94;5011655;28;102749;-87
2022/05/15 11:12:21;;;;;;;1999.90;999.90;;;;;;;17.61;58.48;101162.91;5005669;28;102347;-86
2022/05/15 11:14:59;;;;;;;1999.90;999.90;;;;;;;17.45;59.23;101167.91;4994825;28;102328;-87
2022/05/15 11:17:35;;;;;;;1999.90;999.90;;;;;;;17.39;60.33;101155.38;4992353;28;104099;-87
2022/05/15 11:20:06;;;;;;;1999.90;999.90;;;;;;;17.34;60.30;101156.28;4993087;28;102020;-86
2022/05/15 11:22:37;;;;;;;1999.90;999.90;;;;;;;17.32;60.69;101146.72;5002665;28;103497;-87
2022/05/15 11:25:12;;;;;;;1999.90;999.90;;;;;;;17.32;59.77;101149.47;5007985;28;102162;-87
2022/05/15 11:27:46;;;;;;;1999.90;999.90;;;;;;;17.29;60.68;101140.69;5004647;28;103989;-86
2022/05/15 11:30:18;;;;;;;1999.90;999.90;;;;;;;17.30;60.70;101141.50;4993872;28;102728;-87
2022/05/15 11:33:03;;;;;;;1999.90;999.90;;;;;;;17.29;60.59;101145.38;5008906;28;102207;-86
2022/05/15 11:35:33;;;;;;;1999.90;999.90;;;;;;;17.33;60.42;101142.84;5000610;28;102073;-85
2022/05/15 11:38:05;;;;;;;1999.90;999.90;;;;;;;17.30;60.85;101145.06;4998766;28;104080;-85